createdAt,value
2018-10-11T00:01:36.135Z,29.47
2018-10-11T00:04:05.727Z,30.23
2018-10-11T00:09:48.317Z,30.70
2018-10-11T00:15:25.192Z,30.17
2018-10-11T00:17:54.986Z,30.97
2018-10-11T00:20:24.348Z,30.10
2018-10-11T00:22:53.883Z,29.87
2018-10-11T00:28:27.619Z,31.77
2018-10-11T00:30:57.533Z,30.07
2018-10-11T00:33:27.129Z,31.10
2018-10-11T00:35:58.129Z,31.30
2018-10-11T00:38:38.423Z,30.00
2018-10-11T00:41:13.518Z,29.93
2018-10-11T00:43:42.716Z,31.00
2018-10-11T00:49:09.629Z,29.23
2018-10-11T00:51:39.393Z,29.60
2018-10-11T00:54:08.953Z,29.90
2018-10-11T00:56:38.302Z,30.97
2018-10-11T00:59:10.779Z,29.90
2018-10-11T01:01:45.745Z,30.77
2018-10-11T01:04:15.451Z,30.50
2018-10-11T01:06:44.549Z,31.27
2018-10-11T01:09:13.662Z,32.57
2018-10-11T01:15:52.905Z,30.77
2018-10-11T01:18:43.426Z,32.77
2018-10-11T01:21:14.177Z,29.97
2018-10-11T01:23:43.547Z,33.03
2018-10-11T01:27:14.672Z,32.53
2018-10-11T01:29:45.647Z,34.00
2018-10-11T01:38:53.831Z,32.55
2018-10-11T01:41:23.176Z,31.80
2018-10-11T01:43:59.051Z,33.23
2018-10-11T01:46:28.517Z,32.63
2018-10-11T01:51:44.954Z,32.70
2018-10-11T01:54:14.128Z,31.80
2018-10-11T01:56:44.375Z,31.63
2018-10-11T02:02:01.070Z,33.30
2018-10-11T02:04:30.210Z,32.80
2018-10-11T02:06:59.331Z,32.20
2018-10-11T02:09:51.266Z,33.30
2018-10-11T02:12:22.388Z,33.33
2018-10-11T02:14:51.548Z,33.80
2018-10-11T02:17:20.614Z,35.80
2018-10-11T02:19:49.708Z,33.80
2018-10-11T02:22:26.628Z,35.60
2018-10-11T02:24:55.891Z,34.57
2018-10-11T02:27:25.112Z,32.97
2018-10-11T02:29:54.254Z,33.40
2018-10-11T02:32:29.058Z,35.30
2018-10-11T02:40:56.722Z,33.70
2018-10-11T02:43:40.292Z,36.93
2018-10-11T02:46:35.134Z,36.47
2018-10-11T02:49:27.766Z,33.53
2018-10-11T02:52:33.246Z,34.43
2018-10-11T02:55:02.643Z,34.20
2018-10-11T02:57:48.879Z,35.20
2018-10-11T03:00:18.032Z,34.57
2018-10-11T03:03:00.422Z,35.43
2018-10-11T03:05:34.766Z,35.57
2018-10-11T03:08:04.007Z,35.70
2018-10-11T03:10:33.715Z,34.50
2018-10-11T03:13:02.989Z,36.00
2018-10-11T03:15:32.082Z,37.70
2018-10-11T03:18:01.523Z,36.00
2018-10-11T03:20:30.589Z,37.50
2018-10-11T03:22:59.723Z,35.27
2018-10-11T03:25:28.793Z,36.30
2018-10-11T03:31:01.971Z,36.07
2018-10-11T03:33:31.091Z,38.93
2018-10-11T03:36:15.385Z,36.53
2018-10-11T03:38:44.625Z,37.10
2018-10-11T03:41:13.705Z,39.07
2018-10-11T03:43:42.771Z,37.17
2018-10-11T03:46:12.044Z,37.20
2018-10-11T03:48:41.187Z,37.50
2018-10-11T03:51:34.903Z,37.50
2018-10-11T03:57:40.952Z,37.33
2018-10-11T04:00:10.229Z,38.70
2018-10-11T04:02:39.959Z,39.53
2018-10-11T04:05:09.069Z,39.10
2018-10-11T04:07:38.239Z,39.50
2018-10-11T04:10:07.540Z,39.63
2018-10-11T04:12:36.627Z,39.67
2018-10-11T04:15:05.726Z,37.33
2018-10-11T04:17:34.801Z,39.70
2018-10-11T04:20:05.251Z,38.43
2018-10-11T04:22:34.529Z,37.23
2018-10-11T04:25:03.567Z,40.33
2018-10-11T04:27:32.644Z,37.13
2018-10-11T04:30:02.139Z,37.10
2018-10-11T04:32:31.775Z,36.70
2018-10-11T04:35:31.379Z,37.87
2018-10-11T04:38:00.757Z,38.50
2018-10-11T04:40:29.817Z,38.90
2018-10-11T04:42:58.953Z,38.50
2018-10-11T04:51:11.941Z,40.37
2018-10-11T04:53:41.389Z,39.43
2018-10-11T04:56:11.254Z,42.20
2018-10-11T04:58:59.853Z,39.07
2018-10-11T05:01:29.459Z,40.20
2018-10-11T05:04:01.183Z,37.47
2018-10-11T05:06:41.679Z,37.97
2018-10-11T05:09:26.655Z,39.83
2018-10-11T05:11:56.023Z,40.33
2018-10-11T05:14:25.400Z,40.40
2018-10-11T05:16:55.273Z,41.73
2018-10-11T05:22:24.713Z,37.10
2018-10-11T05:24:58.134Z,40.37
2018-10-11T05:27:27.721Z,40.90
2018-10-11T05:29:56.996Z,39.97
2018-10-11T05:32:33.295Z,40.53
2018-10-11T05:38:10.746Z,40.90
2018-10-11T05:40:40.169Z,40.03
2018-10-11T05:43:09.285Z,40.47
2018-10-11T05:45:55.665Z,39.53
2018-10-11T05:48:26.823Z,38.90
2018-10-11T05:51:03.161Z,42.83
2018-10-11T05:53:33.297Z,42.70
2018-10-11T05:56:03.228Z,40.80
2018-10-11T05:59:09.847Z,41.77
2018-10-11T06:01:57.487Z,42.67
2018-10-11T06:04:26.727Z,40.20
2018-10-11T06:06:55.957Z,45.37
2018-10-11T06:09:25.547Z,40.90
2018-10-11T06:11:54.893Z,45.13
2018-10-11T06:14:24.172Z,41.43
2018-10-11T06:16:53.288Z,44.20
2018-10-11T06:19:22.550Z,45.17
2018-10-11T06:24:34.925Z,42.57
2018-10-11T06:27:08.472Z,41.57
2018-10-11T06:29:55.904Z,44.60
2018-10-11T06:32:25.511Z,46.93
2018-10-11T06:35:05.335Z,45.30
2018-10-11T06:37:34.941Z,42.73
2018-10-11T06:40:05.021Z,40.03
2018-10-11T06:42:34.604Z,39.90
2018-10-11T06:45:04.294Z,44.00
2018-10-11T06:48:07.636Z,39.33
2018-10-11T06:50:36.835Z,42.53
2018-10-11T06:53:06.328Z,43.80
2018-10-11T06:55:35.774Z,38.70
2018-10-11T06:58:05.152Z,37.37
2018-10-11T07:00:36.308Z,38.97
2018-10-11T07:03:06.806Z,38.70
2018-10-11T07:05:36.265Z,37.47
2018-10-11T07:08:05.325Z,36.97
2018-10-11T07:10:35.498Z,37.40
2018-10-11T07:13:14.467Z,36.37
2018-10-11T07:15:52.375Z,35.70
2018-10-11T07:18:22.622Z,36.77
2018-10-11T07:20:51.655Z,34.63
2018-10-11T07:23:21.663Z,34.30
2018-10-11T07:26:10.578Z,35.30
2018-10-11T07:28:43.160Z,33.03
2018-10-11T07:31:18.403Z,33.67
2018-10-11T07:33:47.846Z,34.17
2018-10-11T07:36:17.126Z,33.27
2018-10-11T07:38:46.357Z,32.80
2018-10-11T07:41:15.853Z,32.20
2018-10-11T07:43:45.113Z,33.20
2018-10-11T07:46:14.643Z,29.93
2018-10-11T07:48:48.904Z,31.00
2018-10-11T07:51:18.325Z,29.50
2018-10-11T07:56:42.564Z,30.13
2018-10-11T07:59:11.741Z,30.30
2018-10-11T08:01:41.070Z,28.20
2018-10-11T08:04:10.207Z,30.47
2018-10-11T08:06:40.144Z,29.73
2018-10-11T08:09:10.191Z,29.67
2018-10-11T08:11:41.217Z,26.03
2018-10-11T08:14:10.787Z,30.70
2018-10-11T08:17:34.243Z,29.93
2018-10-11T08:20:03.425Z,27.27
2018-10-11T08:22:32.591Z,27.03
2018-10-11T08:25:01.874Z,27.80
2018-10-11T08:27:31.036Z,26.27
2018-10-11T08:30:01.444Z,26.40
2018-10-11T08:32:30.790Z,26.70
2018-10-11T08:34:59.948Z,27.00
2018-10-11T08:37:29.463Z,25.80
2018-10-11T08:39:58.644Z,26.50
2018-10-11T08:42:27.838Z,26.73
2018-10-11T08:44:57.551Z,25.00
2018-10-11T08:47:26.987Z,25.20
2018-10-11T08:49:56.287Z,25.40
2018-10-11T08:52:26.319Z,28.47
2018-10-11T08:54:55.864Z,25.53
2018-10-11T08:57:59.652Z,26.03
2018-10-11T09:00:29.226Z,25.40
2018-10-11T09:04:00.862Z,23.80
2018-10-11T09:06:30.036Z,25.93
2018-10-11T09:09:26.280Z,25.13
2018-10-11T09:11:55.338Z,25.60
2018-10-11T09:14:24.458Z,24.80
2018-10-11T09:17:00.068Z,24.50
2018-10-11T09:19:29.218Z,25.97
2018-10-11T09:21:58.930Z,25.97
2018-10-11T09:24:28.500Z,23.43
2018-10-11T09:26:57.644Z,24.90
2018-10-11T09:29:31.660Z,23.50
2018-10-11T09:32:09.278Z,24.17
2018-10-11T09:34:38.578Z,24.40
2018-10-11T09:37:07.927Z,22.97
2018-10-11T09:39:37.496Z,23.47
2018-10-11T09:42:06.859Z,23.37
2018-10-11T09:44:44.552Z,22.20
2018-10-11T09:47:13.720Z,22.17
2018-10-11T09:49:42.771Z,22.30
2018-10-11T09:52:11.872Z,22.37
2018-10-11T09:57:43.860Z,22.00
2018-10-11T10:00:18.346Z,21.90
2018-10-11T10:03:07.138Z,20.60
2018-10-11T10:05:37.148Z,20.93
2018-10-11T10:08:11.998Z,23.17
2018-10-11T10:10:47.341Z,22.37
2018-10-11T10:13:16.546Z,21.30
2018-10-11T10:15:45.678Z,21.40
2018-10-11T10:18:15.000Z,21.70
2018-10-11T10:20:44.175Z,20.67
2018-10-11T10:23:13.542Z,22.10
2018-10-11T10:42:29.974Z,19.17
2018-10-11T10:44:59.186Z,18.53
2018-10-11T10:47:28.672Z,19.30
2018-10-11T10:49:58.533Z,17.87
2018-10-11T10:52:27.576Z,17.23
2018-10-11T10:55:54.048Z,16.57
2018-10-11T10:58:29.472Z,17.53
2018-10-11T11:00:58.576Z,17.13
2018-10-11T11:03:27.751Z,16.97
2018-10-11T11:05:56.894Z,16.87
2018-10-11T11:08:27.413Z,17.07
2018-10-11T11:10:56.526Z,17.67
2018-10-11T11:14:19.713Z,17.10
2018-10-11T11:16:52.248Z,16.60
2018-10-11T11:19:22.983Z,18.27
2018-10-11T11:21:52.345Z,15.40
2018-10-11T11:27:44.080Z,15.93
2018-10-11T11:30:54.138Z,15.63
2018-10-11T11:33:38.468Z,16.10
2018-10-11T11:36:07.596Z,15.50
2018-10-11T11:38:52.143Z,16.20
2018-10-11T11:44:33.553Z,17.03
2018-10-11T11:47:02.760Z,15.70
2018-10-11T11:49:39.755Z,16.70
2018-10-11T11:55:27.417Z,16.90
2018-10-11T11:57:56.981Z,15.47
2018-10-11T12:03:49.685Z,15.90
2018-10-11T12:06:22.043Z,17.03
2018-10-11T12:09:13.781Z,15.60
2018-10-11T12:12:07.701Z,15.83
2018-10-11T12:14:49.340Z,15.77
2018-10-11T12:17:32.363Z,15.20
2018-10-11T12:23:23.077Z,16.23
2018-10-11T12:25:53.205Z,16.50
2018-10-11T12:28:22.612Z,15.50
2018-10-11T12:30:51.713Z,17.20
2018-10-11T12:33:31.116Z,14.40
2018-10-11T12:36:14.617Z,16.20
2018-10-11T12:38:45.540Z,15.50
2018-10-11T12:41:15.931Z,16.40
2018-10-11T12:43:47.859Z,15.67
2018-10-11T12:48:25.741Z,17.07
2018-10-11T12:51:04.851Z,16.17
2018-10-11T12:56:39.665Z,14.43
2018-10-11T12:59:16.006Z,17.63
2018-10-11T13:04:54.446Z,16.87
2018-10-11T13:10:47.750Z,14.80
2018-10-11T13:13:29.238Z,14.60
2018-10-11T13:16:16.854Z,14.83
2018-10-11T13:21:53.342Z,15.40
2018-10-11T13:24:23.137Z,16.23
2018-10-11T13:26:52.339Z,15.87
2018-10-11T13:34:47.199Z,15.27
2018-10-11T13:37:45.080Z,16.40
2018-10-11T13:40:57.868Z,14.67
2018-10-11T13:43:43.891Z,15.40
2018-10-11T13:46:20.155Z,16.23
2018-10-11T13:52:27.830Z,17.27
2018-10-11T13:58:40.625Z,15.00
2018-10-11T14:05:19.408Z,15.77
2018-10-11T14:07:50.588Z,15.63
2018-10-11T14:16:20.334Z,16.80
2018-10-11T14:19:08.312Z,14.57
2018-10-11T14:25:06.472Z,13.77
2018-10-11T14:27:48.370Z,17.93
2018-10-11T14:30:36.600Z,14.63
2018-10-11T14:33:30.872Z,14.07
2018-10-11T14:36:21.228Z,13.63
2018-10-11T14:42:20.260Z,14.13
2018-10-11T14:44:49.796Z,13.90
2018-10-11T14:54:06.774Z,13.67
2018-10-11T14:56:35.929Z,14.80
2018-10-11T14:59:25.186Z,14.33
2018-10-11T15:01:54.699Z,14.53
2018-10-11T15:07:41.461Z,13.40
2018-10-11T15:10:35.896Z,14.27
2018-10-11T15:18:16.333Z,14.40
2018-10-11T15:24:04.686Z,14.30
2018-10-11T15:26:48.244Z,14.00
2018-10-11T15:29:23.705Z,13.40
2018-10-11T15:32:18.917Z,12.83
2018-10-11T15:34:59.572Z,13.83
2018-10-11T15:37:33.550Z,14.10
2018-10-11T15:41:25.890Z,14.37
2018-10-11T15:44:30.110Z,13.30
2018-10-11T15:46:59.310Z,14.83
2018-10-11T15:50:16.812Z,15.20
2018-10-11T15:56:23.985Z,13.73
2018-10-11T15:59:21.180Z,14.90
2018-10-11T16:03:08.287Z,14.10
2018-10-11T16:05:54.908Z,15.57
2018-10-11T16:08:29.876Z,15.40
2018-10-11T16:11:11.598Z,15.87
2018-10-11T16:16:54.390Z,16.37
2018-10-11T16:19:38.259Z,16.00
2018-10-11T16:22:38.332Z,16.53
2018-10-11T16:28:19.136Z,16.13
2018-10-11T16:37:13.537Z,16.40
2018-10-11T16:43:00.448Z,17.60
2018-10-11T16:45:34.383Z,17.10
2018-10-11T16:48:06.865Z,20.30
2018-10-11T16:50:43.630Z,17.53
2018-10-11T16:53:14.978Z,18.00
2018-10-11T16:55:45.400Z,18.90
2018-10-11T16:58:15.397Z,19.77
2018-10-11T17:01:02.592Z,28.20
2018-10-11T17:03:31.733Z,19.70
2018-10-11T17:06:01.282Z,20.10
2018-10-11T17:08:30.695Z,20.10
2018-10-11T17:14:03.982Z,19.13
2018-10-11T17:16:45.615Z,17.30
2018-10-11T17:32:54.718Z,19.90
2018-10-11T17:35:24.375Z,18.50
2018-10-11T17:37:55.135Z,17.43
2018-10-11T17:40:24.720Z,19.00
2018-10-11T17:42:54.517Z,19.40
2018-10-11T17:45:26.266Z,18.33
2018-10-11T17:47:56.475Z,19.37
2018-10-11T17:50:27.926Z,20.10
2018-10-11T17:52:57.387Z,17.37
2018-10-11T17:55:37.641Z,17.70
2018-10-11T17:58:08.124Z,18.80
2018-10-11T18:04:02.352Z,19.00
2018-10-11T18:07:39.691Z,19.70
2018-10-11T18:10:25.519Z,18.30
2018-10-11T18:12:55.416Z,17.27
2018-10-11T18:15:25.906Z,20.47
2018-10-11T18:17:55.303Z,20.17
2018-10-11T18:20:25.776Z,19.67
2018-10-11T18:22:55.795Z,20.40
2018-10-11T18:25:27.185Z,18.27
2018-10-11T18:27:57.092Z,18.90
2018-10-11T18:30:26.846Z,17.47
2018-10-11T18:32:56.380Z,24.87
2018-10-11T18:35:29.445Z,18.90
2018-10-11T18:39:13.366Z,18.50
2018-10-11T18:41:44.406Z,17.93
2018-10-11T18:44:23.606Z,19.67
2018-10-11T18:46:55.402Z,52.47
2018-10-11T18:49:24.873Z,23.40
2018-10-11T18:51:54.082Z,20.27
2018-10-11T18:54:23.268Z,19.77
2018-10-11T18:56:52.580Z,17.43
2018-10-11T18:59:33.369Z,20.17
2018-10-11T19:02:38.292Z,18.33
2018-10-11T19:05:07.716Z,19.93
2018-10-11T19:08:06.257Z,21.03
2018-10-11T19:10:36.604Z,21.33
2018-10-11T19:13:06.286Z,19.50
2018-10-11T19:15:36.557Z,20.77
2018-10-11T19:18:06.535Z,21.07
2018-10-11T19:20:36.332Z,21.33
2018-10-11T19:23:06.260Z,22.30
2018-10-11T19:25:37.666Z,21.60
2018-10-11T19:28:07.145Z,23.00
2018-10-11T19:30:37.336Z,21.90
2018-10-11T19:33:38.811Z,24.03
2018-10-11T19:39:14.662Z,27.10
2018-10-11T19:42:14.237Z,25.73
2018-10-11T19:44:43.737Z,22.33
2018-10-11T19:47:13.350Z,22.73
2018-10-11T19:49:42.881Z,23.80
2018-10-11T19:52:12.678Z,23.37
2018-10-11T19:54:43.007Z,22.90
2018-10-11T19:57:12.782Z,26.90
2018-10-11T19:59:42.233Z,22.27
2018-10-11T20:02:13.159Z,24.03
2018-10-11T20:04:45.792Z,26.13
2018-10-11T20:07:15.971Z,23.67
2018-10-11T20:12:42.800Z,24.43
2018-10-11T20:15:11.965Z,24.43
2018-10-11T20:17:41.184Z,24.27
2018-10-11T20:20:11.331Z,26.50
2018-10-11T20:22:47.823Z,25.07
2018-10-11T20:25:21.209Z,26.13
2018-10-11T20:27:50.725Z,25.27
2018-10-11T20:30:22.307Z,25.90
2018-10-11T20:32:51.887Z,24.33
2018-10-11T20:35:21.874Z,24.70
2018-10-11T20:37:51.777Z,26.73
2018-10-11T20:40:21.385Z,25.43
2018-10-11T20:42:51.803Z,24.83
2018-10-11T20:45:21.567Z,25.20
2018-10-11T20:47:51.791Z,27.13
2018-10-11T20:50:26.139Z,24.67
2018-10-11T20:52:55.543Z,23.60
2018-10-11T20:55:27.436Z,25.17
2018-10-11T21:11:08.467Z,25.62
2018-10-11T21:13:37.599Z,25.93
2018-10-11T21:16:07.446Z,26.03
2018-10-11T21:18:36.650Z,26.43
2018-10-11T21:21:05.943Z,27.17
2018-10-11T21:23:36.571Z,27.57
2018-10-11T21:26:06.572Z,25.77
2018-10-11T21:28:36.817Z,25.90
2018-10-11T21:31:06.873Z,27.00
2018-10-11T21:33:37.088Z,25.73
2018-10-11T21:36:07.680Z,27.13
2018-10-11T21:38:46.307Z,28.40
2018-10-11T21:41:27.629Z,27.83
2018-10-11T21:43:59.689Z,27.33
2018-10-11T21:46:30.726Z,28.00
2018-10-11T21:49:01.585Z,27.60
2018-10-11T21:55:56.579Z,27.13
2018-10-11T21:58:26.211Z,25.43
2018-10-11T22:01:00.903Z,25.40
2018-10-11T22:03:32.805Z,27.67
2018-10-11T22:06:32.460Z,28.10
2018-10-11T22:09:02.247Z,27.73
2018-10-11T22:11:34.096Z,28.70
2018-10-11T22:14:03.693Z,29.90
2018-10-11T22:16:34.453Z,28.17
2018-10-11T22:19:05.691Z,27.27
2018-10-11T22:21:37.033Z,28.07
2018-10-11T22:24:26.293Z,27.00
2018-10-11T22:26:56.611Z,27.43
2018-10-11T22:29:26.361Z,27.57
2018-10-11T22:31:56.415Z,27.67
2018-10-11T22:34:39.373Z,25.67
2018-10-11T22:40:10.184Z,26.50
2018-10-11T22:42:39.936Z,26.80
2018-10-11T22:47:56.428Z,26.53
2018-10-11T22:50:38.176Z,25.50
2018-10-11T22:53:08.396Z,26.07
2018-10-11T22:55:37.682Z,25.10
2018-10-11T22:58:06.949Z,27.47
2018-10-11T23:00:39.677Z,27.50
2018-10-11T23:03:09.189Z,25.40
2018-10-11T23:05:38.490Z,27.37
2018-10-11T23:08:07.698Z,26.87
2018-10-11T23:10:36.858Z,27.00
2018-10-11T23:13:06.118Z,26.33
2018-10-11T23:15:35.282Z,28.13
2018-10-11T23:18:04.396Z,28.03
2018-10-11T23:20:33.450Z,28.17
2018-10-11T23:23:05.166Z,26.60
2018-10-11T23:25:35.423Z,27.87
2018-10-11T23:28:05.338Z,27.90
2018-10-11T23:30:34.771Z,25.70
2018-10-11T23:33:04.145Z,27.33
2018-10-11T23:35:33.601Z,27.17
2018-10-11T23:38:03.260Z,26.63
2018-10-11T23:40:32.417Z,26.20
2018-10-11T23:43:01.720Z,26.30
2018-10-11T23:45:31.071Z,27.13
2018-10-11T23:48:01.054Z,25.93
2018-10-11T23:50:30.567Z,26.07
2018-10-11T23:53:02.011Z,26.80
2018-10-11T23:55:33.109Z,26.67
2018-10-11T23:58:03.303Z,25.93
